Time;durP1;ratioP1;P1;durP2;ratioP2;P2;SDS_P1;SDS_P2;PMS_P1;PMS_P2;Temp;Humidity;BMP_temperature;BMP_pressure;BME280_temperature;BME280_humidity;BME280_pressure;Samples;Min_cycle;Max_cycle;Signal;HPM_P1;HPM_P2
2022/06/23 00:01:13;;;;;;;6.80;2.85;;;21.90;99.90;;;;;;7395400;19;20134;-82
2022/06/23 00:03:39;;;;;;;8.63;4.15;;;22.00;99.90;;;;;;7395031;19;20153;-81
2022/06/23 00:06:23;;;;;;;9.73;4.93;;;22.10;99.90;;;;;;7395009;19;20137;-81
2022/06/23 00:08:49;;;;;;;8.05;4.50;;;22.10;99.90;;;;;;7392205;19;20154;-82
2022/06/23 00:11:21;;;;;;;7.82;5.18;;;22.00;99.90;;;;;;7399366;19;20279;-74
2022/06/23 00:13:48;;;;;;;9.23;5.65;;;22.10;99.90;;;;;;7398205;19;20138;-73
2022/06/23 00:16:25;;;;;;;9.65;5.78;;;22.00;99.90;;;;;;7392511;19;20150;-82
2022/06/23 00:18:51;;;;;;;13.10;5.88;;;22.00;99.90;;;;;;7393232;19;20174;-81
2022/06/23 00:21:21;;;;;;;10.88;5.75;;;22.00;99.90;;;;;;7394113;19;20165;-80
2022/06/23 00:23:51;;;;;;;8.60;6.15;;;22.00;99.90;;;;;;7396078;19;20141;-81
2022/06/23 00:26:30;;;;;;;13.43;5.95;;;22.10;99.90;;;;;;7395392;19;20135;-74
2022/06/23 00:29:09;;;;;;;11.20;5.65;;;22.10;99.90;;;;;;7396295;19;20210;-74
2022/06/23 00:31:38;;;;;;;8.10;6.55;;;22.10;99.90;;;;;;7392878;19;20711;-73
2022/06/23 00:34:25;;;;;;;13.13;6.07;;;22.10;99.90;;;;;;7395069;19;20143;-74
2022/06/23 00:36:55;;;;;;;12.85;5.25;;;21.70;99.90;;;;;;7396860;19;20185;-72
2022/06/23 00:39:35;;;;;;;8.57;4.40;;;21.80;99.90;;;;;;7391941;19;20555;-82
2022/06/23 00:42:05;;;;;;;8.30;4.55;;;21.80;99.90;;;;;;7394977;19;20134;-80
2022/06/23 00:44:39;;;;;;;7.10;3.95;;;21.80;99.90;;;;;;7394376;19;20202;-82
2022/06/23 00:47:12;;;;;;;11.45;4.18;;;21.70;99.90;;;;;;7391583;19;20454;-74
2022/06/23 00:50:03;;;;;;;7.18;3.88;;;21.70;99.90;;;;;;7394519;19;20146;-83
2022/06/23 00:52:44;;;;;;;6.22;3.60;;;21.30;99.90;;;;;;7391018;19;20175;-83
2022/06/23 00:55:36;;;;;;;10.60;3.40;;;21.10;99.90;;;;;;7392142;19;20181;-73
2022/06/23 00:58:15;;;;;;;5.93;3.30;;;21.10;99.90;;;;;;7392276;19;20230;-80
2022/06/23 01:00:42;;;;;;;7.03;3.22;;;21.20;99.90;;;;;;7397289;19;20138;-82
2022/06/23 01:03:07;;;;;;;11.05;3.42;;;21.30;99.90;;;;;;7385509;19;20218;-74
2022/06/23 01:05:36;;;;;;;6.93;3.88;;;21.30;99.90;;;;;;7397512;19;20135;-82
2022/06/23 01:08:05;;;;;;;7.72;3.22;;;21.20;99.90;;;;;;7387928;19;20138;-80
2022/06/23 01:10:43;;;;;;;5.82;3.38;;;20.70;99.90;;;;;;7393478;19;20704;-72
2022/06/23 01:13:27;;;;;;;7.97;3.05;;;20.30;99.90;;;;;;7392568;19;20218;-73
2022/06/23 01:16:01;;;;;;;8.35;3.72;;;20.20;99.90;;;;;;7392222;19;20131;-73
2022/06/23 01:18:36;;;;;;;7.07;3.15;;;20.40;99.90;;;;;;7391542;19;20178;-83
2022/06/23 01:21:07;;;;;;;7.72;3.55;;;20.70;99.90;;;;;;7393059;19;20487;-82
2022/06/23 01:23:36;;;;;;;6.63;2.90;;;20.90;99.90;;;;;;7391233;19;20592;-72
2022/06/23 01:26:20;;;;;;;6.55;3.20;;;20.90;99.90;;;;;;7392349;19;20545;-73
2022/06/23 01:28:46;;;;;;;9.95;3.10;;;21.00;99.90;;;;;;7388348;19;20142;-76
2022/06/23 01:31:18;;;;;;;7.63;2.92;;;21.10;99.90;;;;;;7389826;19;20165;-83
2022/06/23 01:33:52;;;;;;;8.32;2.97;;;21.20;99.90;;;;;;7392968;19;20410;-73
2022/06/23 01:36:38;;;;;;;6.72;2.92;;;21.10;99.90;;;;;;7389859;19;20849;-81
2022/06/23 01:39:29;;;;;;;8.88;2.58;;;21.20;99.90;;;;;;7394630;19;20207;-80
2022/06/23 01:42:13;;;;;;;6.68;2.97;;;21.20;99.90;;;;;;7390209;19;20145;-80
2022/06/23 01:44:45;;;;;;;5.75;2.90;;;21.20;99.90;;;;;;7392118;19;20573;-81
2022/06/23 01:47:34;;;;;;;7.35;2.72;;;21.10;99.90;;;;;;7391528;19;20165;-73
2022/06/23 01:50:30;;;;;;;8.88;2.65;;;21.10;99.90;;;;;;7393430;19;20130;-73
2022/06/23 01:53:25;;;;;;;8.02;2.88;;;21.20;99.90;;;;;;7386401;19;20141;-74
2022/06/23 01:55:53;;;;;;;6.35;2.30;;;21.30;99.90;;;;;;7391162;19;20167;-79
2022/06/23 01:58:22;;;;;;;6.18;2.97;;;21.20;99.90;;;;;;7388100;19;20877;-79
2022/06/23 02:00:53;;;;;;;7.15;2.70;;;21.40;99.90;;;;;;7388546;19;20131;-82
2022/06/23 02:03:29;;;;;;;6.18;2.80;;;21.30;99.90;;;;;;7393244;19;20206;-83
2022/06/23 02:05:58;;;;;;;12.18;3.28;;;21.20;99.90;;;;;;7389941;19;20171;-81
2022/06/23 02:08:42;;;;;;;8.82;2.65;;;20.90;99.90;;;;;;7389518;19;20611;-82
2022/06/23 02:11:35;;;;;;;3.45;2.58;;;20.80;99.90;;;;;;7390760;19;20158;-83
2022/06/23 02:14:13;;;;;;;5.30;2.60;;;20.90;99.90;;;;;;7393405;19;20210;-73
2022/06/23 02:16:45;;;;;;;5.72;2.33;;;21.00;99.90;;;;;;7391858;19;20134;-73
2022/06/23 02:19:21;;;;;;;5.35;2.80;;;21.00;99.90;;;;;;7389027;19;20165;-81
2022/06/23 02:22:01;;;;;;;6.07;2.78;;;21.00;99.90;;;;;;7390068;19;20142;-83
2022/06/23 02:24:53;;;;;;;6.82;2.75;;;21.00;99.90;;;;;;7392664;19;20226;-82
2022/06/23 02:27:30;;;;;;;9.43;3.00;;;20.90;99.90;;;;;;7391057;19;20177;-72
2022/06/23 02:30:07;;;;;;;4.95;2.63;;;20.70;99.90;;;;;;7388804;19;20141;-73
2022/06/23 02:32:41;;;;;;;8.20;2.85;;;20.80;99.90;;;;;;7389828;19;20601;-80
2022/06/23 02:35:13;;;;;;;11.27;3.15;;;20.80;99.90;;;;;;7385442;19;20142;-72
2022/06/23 02:37:50;;;;;;;8.65;2.97;;;20.80;99.90;;;;;;7387070;19;20157;-81
2022/06/23 02:40:44;;;;;;;9.35;2.88;;;20.80;99.90;;;;;;7387848;19;20154;-82
2022/06/23 02:43:26;;;;;;;10.43;3.28;;;20.90;99.90;;;;;;7388276;19;20130;-79
2022/06/23 02:46:15;;;;;;;5.68;2.63;;;20.90;99.90;;;;;;7391796;19;20147;-73
2022/06/23 02:48:55;;;;;;;6.78;2.63;;;20.90;99.90;;;;;;7389904;19;20500;-81
2022/06/23 02:51:45;;;;;;;8.23;3.17;;;20.90;99.90;;;;;;7389373;19;20146;-81
2022/06/23 02:54:32;;;;;;;6.82;2.40;;;20.80;99.90;;;;;;7390937;19;20581;-73
2022/06/23 02:57:38;;;;;;;7.47;3.28;;;20.90;99.90;;;;;;7388124;19;20134;-73
2022/06/23 03:00:35;;;;;;;8.20;2.80;;;20.80;99.90;;;;;;7383151;19;20145;-82
2022/06/23 03:03:33;;;;;;;8.10;2.80;;;20.80;99.90;;;;;;7396240;19;20242;-74
2022/06/23 03:06:13;;;;;;;5.13;2.60;;;20.40;99.90;;;;;;7394158;19;20138;-74
2022/06/23 03:08:57;;;;;;;5.88;2.63;;;20.40;99.90;;;;;;7395638;19;20138;-74
2022/06/23 03:11:52;;;;;;;6.35;2.80;;;20.70;99.90;;;;;;7408908;19;20143;-84
2022/06/23 03:14:39;;;;;;;10.18;3.28;;;20.90;99.90;;;;;;7397344;19;20145;-82
2022/06/23 03:17:17;;;;;;;7.55;3.05;;;20.90;99.90;;;;;;7396966;19;20139;-81
2022/06/23 03:19:52;;;;;;;6.97;2.88;;;20.70;99.90;;;;;;7394292;19;20508;-73
2022/06/23 03:22:50;;;;;;;7.00;2.80;;;20.70;99.90;;;;;;7395522;19;20175;-73
2022/06/23 03:25:19;;;;;;;6.00;2.88;;;20.70;99.90;;;;;;7393945;19;20150;-82
2022/06/23 03:28:04;;;;;;;8.88;3.10;;;20.60;99.90;;;;;;7397304;19;20143;-73
2022/06/23 03:30:36;;;;;;;9.82;2.83;;;20.60;99.90;;;;;;7397130;19;20139;-73
2022/06/23 03:33:16;;;;;;;9.20;3.20;;;20.70;99.90;;;;;;7398801;19;20249;-82
2022/06/23 03:35:50;;;;;;;9.13;2.75;;;20.70;99.90;;;;;;7398920;19;20614;-74
2022/06/23 03:41:59;;;;;;;6.72;2.58;;;20.80;99.90;;;;;;7390479;19;20842;-73
2022/06/23 03:44:31;;;;;;;5.70;2.60;;;21.00;99.90;;;;;;7392044;19;20134;-72
2022/06/23 03:47:21;;;;;;;6.53;2.95;;;21.00;99.90;;;;;;7392728;19;20182;-81
2022/06/23 03:49:53;;;;;;;6.88;2.85;;;20.70;99.90;;;;;;7392414;19;20788;-74
2022/06/23 03:52:21;;;;;;;6.95;2.80;;;20.80;99.90;;;;;;7395875;19;20155;-73
2022/06/23 03:55:26;;;;;;;6.68;3.58;;;20.80;99.90;;;;;;7398134;19;20570;-74
2022/06/23 03:58:12;;;;;;;7.20;3.42;;;20.90;99.90;;;;;;7393869;19;20158;-73
2022/06/23 04:00:45;;;;;;;7.20;3.22;;;20.90;99.90;;;;;;7391339;19;20154;-81
2022/06/23 04:03:29;;;;;;;9.40;3.00;;;21.00;99.90;;;;;;7390652;19;20232;-79
2022/06/23 04:05:55;;;;;;;8.48;2.60;;;20.90;99.90;;;;;;7393374;19;20195;-72
2022/06/23 04:08:31;;;;;;;10.38;3.25;;;21.00;99.90;;;;;;7393511;19;20143;-74
2022/06/23 04:11:43;;;;;;;7.13;3.20;;;20.80;99.90;;;;;;7392973;19;20138;-83
2022/06/23 04:13:49;;;;;;;9.25;3.30;;;20.90;99.90;;;;;;7393619;19;20872;-83
2022/06/23 04:16:16;;;;;;;7.22;3.00;;;20.90;99.90;;;;;;7395501;19;20139;-81
2022/06/23 04:18:46;;;;;;;7.88;3.30;;;21.00;99.90;;;;;;7394769;19;20206;-74
2022/06/23 04:21:23;;;;;;;4.95;3.10;;;21.00;99.90;;;;;;7395396;19;20135;-82
2022/06/23 04:23:52;;;;;;;8.80;3.03;;;21.00;99.90;;;;;;7394839;19;20513;-81
2022/06/23 04:26:23;;;;;;;7.18;3.47;;;20.90;99.90;;;;;;7391347;19;20151;-73
2022/06/23 04:28:53;;;;;;;7.75;3.53;;;20.90;99.90;;;;;;7394305;19;20198;-76
2022/06/23 04:31:27;;;;;;;5.50;2.90;;;20.90;99.90;;;;;;7393758;19;20146;-81
2022/06/23 04:33:54;;;;;;;7.38;3.00;;;20.90;99.90;;;;;;7394658;19;20142;-74
2022/06/23 04:36:32;;;;;;;6.93;3.00;;;20.90;99.90;;;;;;7394381;19;20624;-78
2022/06/23 04:39:16;;;;;;;9.68;3.50;;;21.00;99.90;;;;;;7395199;19;20153;-82
2022/06/23 04:41:51;;;;;;;12.20;3.33;;;21.10;99.90;;;;;;7396355;19;20141;-74
2022/06/23 04:44:43;;;;;;;10.82;3.70;;;20.80;99.90;;;;;;7393733;19;20142;-75
2022/06/23 04:47:18;;;;;;;7.22;3.83;;;20.90;99.90;;;;;;7395850;19;20206;-81
2022/06/23 04:50:15;;;;;;;7.20;2.90;;;20.90;99.90;;;;;;7394403;19;20130;-74
2022/06/23 04:52:50;;;;;;;6.15;3.03;;;20.80;99.90;;;;;;7393004;19;20441;-75
2022/06/23 04:55:27;;;;;;;6.70;3.15;;;20.80;99.90;;;;;;7394482;19;20186;-74
2022/06/23 04:58:12;;;;;;;8.93;3.47;;;20.80;99.90;;;;;;7391760;19;20145;-81
2022/06/23 05:00:48;;;;;;;6.80;3.38;;;20.90;99.90;;;;;;7391701;19;20162;-74
2022/06/23 05:03:35;;;;;;;10.88;3.20;;;21.10;99.90;;;;;;7392954;19;20178;-74
2022/06/23 05:06:22;;;;;;;10.07;3.53;;;20.90;99.90;;;;;;7404907;19;20138;-81
2022/06/23 05:08:49;;;;;;;5.60;3.08;;;20.70;99.90;;;;;;7393743;19;20180;-80
2022/06/23 05:11:29;;;;;;;8.25;3.28;;;20.50;99.90;;;;;;7393988;19;20143;-82
2022/06/23 05:14:12;;;;;;;11.35;3.47;;;20.40;99.90;;;;;;7388871;19;20139;-73
2022/06/23 05:16:46;;;;;;;9.88;3.50;;;20.60;99.90;;;;;;7390693;19;20160;-82
2022/06/23 05:19:26;;;;;;;8.52;3.80;;;20.50;99.90;;;;;;7390177;19;20170;-81
2022/06/23 05:21:55;;;;;;;8.77;3.35;;;20.70;99.90;;;;;;7389685;19;20221;-80
2022/06/23 05:24:35;;;;;;;10.82;3.30;;;20.80;99.90;;;;;;7391525;19;20142;-80
2022/06/23 05:27:05;;;;;;;8.65;3.20;;;20.90;99.90;;;;;;7392938;19;20163;-74
2022/06/23 05:29:52;;;;;;;8.23;3.58;;;21.00;99.90;;;;;;7393064;19;20601;-75
2022/06/23 05:32:36;;;;;;;13.80;4.38;;;21.10;99.90;;;;;;7388857;19;20146;-74
2022/06/23 05:35:20;;;;;;;8.05;3.83;;;21.10;99.90;;;;;;7391042;19;20149;-75
2022/06/23 05:38:00;;;;;;;9.43;4.00;;;21.20;99.90;;;;;;7389227;19;20142;-76
2022/06/23 05:40:57;;;;;;;7.32;4.40;;;21.30;99.90;;;;;;7389657;19;20151;-75
2022/06/23 05:43:25;;;;;;;7.50;4.07;;;21.40;99.90;;;;;;7390092;19;20168;-74
2022/06/23 05:45:56;;;;;;;9.50;4.03;;;21.30;99.90;;;;;;7392960;19;20133;-77
2022/06/23 05:48:36;;;;;;;10.98;3.88;;;21.20;99.90;;;;;;7394567;19;20152;-77
2022/06/23 05:51:27;;;;;;;9.35;3.30;;;21.10;99.90;;;;;;7389405;19;20134;-76
2022/06/23 05:54:27;;;;;;;6.15;3.47;;;21.20;99.90;;;;;;7391778;19;20130;-77
2022/06/23 05:57:12;;;;;;;10.98;3.65;;;21.30;99.90;;;;;;7389096;19;20134;-76
2022/06/23 05:59:57;;;;;;;7.75;3.28;;;21.40;99.90;;;;;;7388065;19;20135;-77
2022/06/23 06:02:46;;;;;;;9.60;3.50;;;21.30;99.90;;;;;;7388298;19;20131;-75
2022/06/23 06:05:23;;;;;;;9.90;4.03;;;21.40;99.90;;;;;;7388643;19;20292;-76
2022/06/23 06:07:48;;;;;;;8.75;3.25;;;21.50;99.90;;;;;;7390824;19;20145;-74
2022/06/23 06:10:19;;;;;;;12.32;3.25;;;21.70;99.90;;;;;;7390133;19;20173;-73
2022/06/23 06:12:46;;;;;;;5.85;3.10;;;21.90;99.90;;;;;;7392119;19;20582;-73
2022/06/23 06:15:22;;;;;;;8.82;3.42;;;22.10;99.90;;;;;;7389556;19;20222;-75
2022/06/23 06:17:51;;;;;;;6.88;3.10;;;23.10;99.90;;;;;;7388017;19;20130;-74
2022/06/23 06:20:25;;;;;;;7.32;3.38;;;23.80;99.90;;;;;;7389362;19;20134;-76
2022/06/23 06:22:57;;;;;;;7.15;4.00;;;24.20;99.90;;;;;;7393034;19;20142;-76
2022/06/23 06:25:35;;;;;;;8.13;4.38;;;25.00;99.90;;;;;;7389393;19;20155;-76
2022/06/23 06:28:15;;;;;;;8.88;4.10;;;25.50;99.90;;;;;;7387249;19;20146;-76
2022/06/23 06:30:49;;;;;;;7.57;4.05;;;25.90;99.90;;;;;;7388381;19;20145;-73
2022/06/23 06:33:34;;;;;;;8.40;4.60;;;26.40;99.90;;;;;;7387580;19;20843;-77
2022/06/23 06:36:00;;;;;;;13.15;6.88;;;26.80;99.90;;;;;;7390097;19;20214;-76
2022/06/23 06:38:29;;;;;;;10.23;5.10;;;26.50;99.90;;;;;;7399017;19;20154;-74
2022/06/23 06:40:59;;;;;;;10.45;4.70;;;27.00;99.90;;;;;;7391048;19;20155;-77
2022/06/23 06:43:29;;;;;;;7.13;4.10;;;27.30;99.90;;;;;;7396828;19;20142;-74
2022/06/23 06:45:57;;;;;;;6.35;3.83;;;27.50;99.90;;;;;;7400371;19;20150;-76
2022/06/23 06:48:35;;;;;;;8.90;4.05;;;27.40;99.90;;;;;;7409073;19;20154;-75
2022/06/23 06:51:08;;;;;;;10.25;4.65;;;27.00;99.90;;;;;;7395932;19;20150;-75
2022/06/23 06:53:43;;;;;;;10.23;4.20;;;27.70;99.90;;;;;;7394922;19;20143;-74
2022/06/23 06:56:28;;;;;;;7.38;3.78;;;28.00;99.90;;;;;;7393334;19;20145;-76
2022/06/23 06:59:03;;;;;;;8.35;4.38;;;28.20;99.90;;;;;;7399239;19;20129;-75
2022/06/23 07:01:33;;;;;;;7.47;3.85;;;28.20;99.90;;;;;;7394207;19;20146;-74
2022/06/23 07:04:00;;;;;;;8.70;3.85;;;28.10;99.90;;;;;;7391824;19;20170;-73
2022/06/23 07:06:42;;;;;;;10.23;3.75;;;27.70;99.90;;;;;;7390977;19;20131;-74
2022/06/23 07:09:31;;;;;;;6.97;3.47;;;27.40;99.90;;;;;;7392878;19;20604;-75
2022/06/23 07:12:12;;;;;;;7.00;3.63;;;27.40;99.90;;;;;;7396043;19;20206;-75
2022/06/23 07:15:08;;;;;;;7.38;3.95;;;27.80;99.90;;;;;;7393858;19;20600;-76
2022/06/23 07:17:40;;;;;;;8.30;2.97;;;28.30;99.90;;;;;;7391986;19;20615;-74
2022/06/23 07:20:21;;;;;;;10.23;4.00;;;28.30;99.90;;;;;;7393659;19;20178;-75
2022/06/23 07:23:06;;;;;;;10.50;3.42;;;28.30;99.90;;;;;;7391855;19;20142;-74
2022/06/23 07:25:37;;;;;;;6.50;3.05;;;28.80;99.90;;;;;;7396232;19;20154;-76
2022/06/23 07:28:06;;;;;;;7.85;3.30;;;29.50;99.90;;;;;;7393851;19;20904;-74
2022/06/23 07:30:41;;;;;;;11.82;3.85;;;29.40;99.90;;;;;;7392665;19;20605;-76
2022/06/23 07:33:12;;;;;;;5.47;3.00;;;28.90;99.90;;;;;;7396777;19;20158;-74
2022/06/23 07:35:49;;;;;;;7.63;2.75;;;28.90;99.90;;;;;;7394353;19;20159;-75
2022/06/23 07:38:25;;;;;;;5.80;2.33;;;29.20;99.90;;;;;;7396061;19;20262;-75
2022/06/23 07:41:08;;;;;;;5.45;2.22;;;29.50;99.90;;;;;;7397154;19;20142;-75
2022/06/23 07:43:59;;;;;;;4.55;2.50;;;28.80;99.90;;;;;;7398183;19;20139;-74
2022/06/23 07:46:26;;;;;;;6.25;2.17;;;28.90;99.90;;;;;;7392191;19;20491;-77
2022/06/23 07:48:52;;;;;;;7.45;2.60;;;29.00;99.90;;;;;;7390978;19;20150;-78
2022/06/23 07:51:18;;;;;;;5.30;2.38;;;28.80;99.90;;;;;;7394414;19;20146;-80
2022/06/23 07:53:47;;;;;;;4.75;2.30;;;28.80;99.90;;;;;;7397844;19;20166;-75
2022/06/23 07:56:24;;;;;;;5.57;2.30;;;29.00;99.90;;;;;;7395416;19;20138;-75
2022/06/23 07:58:56;;;;;;;4.53;2.30;;;28.80;99.90;;;;;;7391481;19;20126;-75
2022/06/23 08:01:33;;;;;;;5.05;2.60;;;28.40;99.90;;;;;;7409576;19;20166;-76
2022/06/23 08:04:12;;;;;;;8.20;2.60;;;28.40;99.90;;;;;;7395785;19;20188;-75
2022/06/23 08:06:38;;;;;;;6.32;2.20;;;28.70;99.90;;;;;;7392380;19;20498;-77
2022/06/23 08:09:26;;;;;;;6.28;1.90;;;29.10;99.90;;;;;;7393398;19;20138;-76
2022/06/23 08:14:44;;;;;;;7.90;2.28;;;29.20;99.90;;;;;;7395484;19;20642;-75
2022/06/23 08:17:14;;;;;;;5.68;2.60;;;29.20;99.90;;;;;;7391012;19;20154;-75
2022/06/23 08:19:50;;;;;;;3.97;2.42;;;29.00;99.90;;;;;;7392877;19;20162;-76
2022/06/23 08:22:29;;;;;;;6.55;2.70;;;29.00;99.90;;;;;;7388837;19;20593;-75
2022/06/23 08:24:58;;;;;;;4.00;2.30;;;29.40;99.90;;;;;;7393457;19;20135;-77
2022/06/23 08:27:28;;;;;;;7.38;3.03;;;29.80;99.90;;;;;;7387905;19;20134;-77
2022/06/23 08:30:01;;;;;;;5.85;2.70;;;30.10;99.90;;;;;;7391844;19;20131;-76
2022/06/23 08:32:29;;;;;;;8.75;2.67;;;30.00;99.90;;;;;;7390446;19;20134;-76
2022/06/23 08:35:07;;;;;;;7.18;2.28;;;29.90;99.90;;;;;;7391323;19;20528;-77
2022/06/23 08:37:39;;;;;;;4.85;2.40;;;29.70;99.90;;;;;;7392091;19;20138;-75
2022/06/23 08:40:22;;;;;;;5.65;2.22;;;29.90;99.90;;;;;;7390600;19;20162;-75
2022/06/23 08:43:15;;;;;;;7.40;2.33;;;30.30;99.90;;;;;;7389182;19;20148;-75
2022/06/23 08:45:49;;;;;;;8.23;2.58;;;30.30;99.90;;;;;;7393900;19;20163;-77
2022/06/23 08:48:31;;;;;;;5.43;2.30;;;30.20;99.90;;;;;;7392469;19;20162;-77
2022/06/23 08:51:02;;;;;;;3.30;1.98;;;30.40;99.90;;;;;;7390179;19;20147;-76
2022/06/23 08:53:42;;;;;;;5.63;2.28;;;30.10;99.90;;;;;;7391225;19;20497;-76
2022/06/23 08:56:28;;;;;;;6.00;2.05;;;29.70;99.90;;;;;;7390113;19;20151;-75
2022/06/23 08:58:57;;;;;;;5.72;1.92;;;29.10;99.90;;;;;;7384836;19;20154;-77
2022/06/23 09:01:34;;;;;;;12.63;2.25;;;29.00;99.90;;;;;;7392058;19;20147;-77
2022/06/23 09:04:03;;;;;;;6.85;2.22;;;28.80;99.90;;;;;;7386996;19;20196;-78
2022/06/23 09:06:54;;;;;;;7.40;2.65;;;29.00;99.90;;;;;;7389659;19;20166;-76
2022/06/23 09:09:29;;;;;;;10.45;7.50;;;28.80;99.90;;;;;;7390982;19;20186;-76
2022/06/23 09:12:14;;;;;;;4.55;2.30;;;28.60;99.90;;;;;;7395630;19;20150;-78
2022/06/23 09:15:21;;;;;;;5.82;2.30;;;28.40;99.90;;;;;;7390586;19;20178;-76
2022/06/23 09:18:07;;;;;;;4.80;2.10;;;28.20;99.90;;;;;;7387222;19;20536;-76
2022/06/23 09:21:03;;;;;;;7.25;2.13;;;28.30;99.90;;;;;;7388173;19;20154;-75
2022/06/23 09:23:47;;;;;;;9.57;2.05;;;28.50;99.90;;;;;;7390049;19;20149;-75
2022/06/23 09:26:16;;;;;;;4.70;1.88;;;28.40;99.90;;;;;;7392048;19;20154;-75
2022/06/23 09:28:54;;;;;;;6.30;4.13;;;28.50;99.90;;;;;;7389127;19;20614;-75
2022/06/23 09:31:26;;;;;;;6.65;2.00;;;28.60;99.90;;;;;;7391735;19;20151;-76
2022/06/23 09:34:29;;;;;;;6.88;2.08;;;28.80;99.90;;;;;;7387928;19;20169;-75
2022/06/23 09:37:13;;;;;;;6.38;2.22;;;28.90;99.90;;;;;;7390181;19;20206;-76
2022/06/23 09:40:10;;;;;;;6.38;2.20;;;28.70;99.90;;;;;;7390633;19;20167;-75
2022/06/23 09:43:16;;;;;;;7.93;2.45;;;28.40;99.90;;;;;;7390915;19;20533;-75
2022/06/23 09:45:54;;;;;;;8.02;2.60;;;28.40;99.90;;;;;;7386779;19;20146;-77
2022/06/23 09:48:38;;;;;;;6.07;1.90;;;28.10;99.90;;;;;;7387752;19;20142;-76
2022/06/23 09:51:35;;;;;;;4.68;2.15;;;27.80;99.90;;;;;;7388236;19;20183;-77
2022/06/23 09:54:12;;;;;;;8.20;3.00;;;27.90;99.90;;;;;;7391798;19;20142;-75
2022/06/23 09:56:49;;;;;;;7.55;2.92;;;27.90;99.90;;;;;;7390876;19;20141;-75
2022/06/23 09:59:35;;;;;;;4.63;2.00;;;28.10;99.90;;;;;;7388127;19;20179;-78
2022/06/23 10:02:25;;;;;;;4.18;2.38;;;28.20;99.90;;;;;;7391256;19;20217;-76
2022/06/23 10:05:09;;;;;;;8.10;2.63;;;28.20;99.90;;;;;;7388655;19;20139;-76
2022/06/23 10:07:48;;;;;;;4.82;2.20;;;28.30;99.90;;;;;;7390661;19;20192;-76
2022/06/23 10:10:49;;;;;;;6.25;2.15;;;28.20;99.90;;;;;;7387519;19;20151;-76
2022/06/23 10:13:27;;;;;;;4.28;1.90;;;28.60;99.90;;;;;;7391117;19;20591;-77
2022/06/23 10:16:06;;;;;;;6.32;2.95;;;28.90;99.90;;;;;;7389791;19;20141;-77
2022/06/23 10:19:06;;;;;;;7.13;2.55;;;29.00;99.90;;;;;;7389701;19;20201;-76
2022/06/23 10:22:07;;;;;;;5.28;2.15;;;29.10;99.90;;;;;;7386454;19;20150;-77
2022/06/23 10:24:53;;;;;;;7.45;2.20;;;29.10;99.90;;;;;;7388220;19;20771;-78
2022/06/23 10:27:44;;;;;;;7.18;2.33;;;29.20;99.90;;;;;;7389335;19;20158;-77
2022/06/23 10:30:21;;;;;;;6.60;2.33;;;29.20;99.90;;;;;;7387061;19;20147;-74
2022/06/23 10:33:27;;;;;;;7.85;2.25;;;28.90;99.90;;;;;;7388833;19;20202;-76
2022/06/23 10:36:05;;;;;;;7.20;2.30;;;28.80;99.90;;;;;;7388706;19;20134;-78
2022/06/23 10:39:18;;;;;;;2.30;1.45;;;28.50;99.90;;;;;;7395858;19;20161;-76
2022/06/23 10:42:01;;;;;;;4.75;2.00;;;28.70;99.90;;;;;;7385449;19;20166;-79
2022/06/23 10:44:59;;;;;;;30.42;20.80;;;28.60;99.90;;;;;;7388139;19;20143;-78
2022/06/23 10:47:25;;;;;;;4.35;1.92;;;28.60;99.90;;;;;;7389477;19;20150;-76
2022/06/23 10:50:12;;;;;;;6.07;2.30;;;28.50;99.90;;;;;;7389813;19;20146;-79
2022/06/23 10:53:02;;;;;;;4.35;1.85;;;28.60;99.90;;;;;;7386194;19;20241;-79
2022/06/23 10:55:49;;;;;;;5.90;1.90;;;28.70;99.90;;;;;;7389224;19;20155;-78
2022/06/23 10:58:36;;;;;;;5.32;2.42;;;28.80;99.90;;;;;;7387455;19;20483;-77
2022/06/23 11:01:27;;;;;;;5.43;1.90;;;28.80;99.90;;;;;;7389593;19;20138;-77
2022/06/23 11:04:24;;;;;;;5.43;2.10;;;28.80;99.90;;;;;;7385236;19;20190;-76
2022/06/23 11:07:18;;;;;;;5.38;2.20;;;28.90;99.90;;;;;;7387353;19;20141;-79
2022/06/23 11:10:22;;;;;;;5.28;2.10;;;28.90;99.90;;;;;;7381944;19;20146;-76
2022/06/23 11:13:00;;;;;;;5.35;1.98;;;29.00;99.90;;;;;;7387618;19;20126;-79
2022/06/23 11:15:38;;;;;;;7.00;1.65;;;29.00;99.90;;;;;;7388045;19;20150;-80
2022/06/23 11:18:06;;;;;;;5.18;1.50;;;29.10;99.90;;;;;;7383929;19;20145;-80
2022/06/23 11:20:55;;;;;;;6.45;1.75;;;29.10;99.90;;;;;;7385114;19;20508;-77
2022/06/23 11:23:29;;;;;;;6.85;1.50;;;29.00;99.90;;;;;;7391707;19;20166;-79
2022/06/23 11:26:18;;;;;;;2.40;1.17;;;28.80;99.20;;;;;;7396398;19;20142;-77
2022/06/23 11:29:05;;;;;;;5.95;1.75;;;28.80;98.70;;;;;;7391432;19;20509;-79
2022/06/23 11:32:06;;;;;;;4.22;1.70;;;28.80;99.10;;;;;;7389942;19;20230;-79
2022/06/23 11:34:50;;;;;;;6.30;2.50;;;28.90;99.40;;;;;;7389764;19;20136;-80
2022/06/23 11:37:57;;;;;;;5.78;1.70;;;29.00;98.70;;;;;;7388648;19;20150;-76
2022/06/23 11:40:41;;;;;;;4.18;1.67;;;28.90;98.80;;;;;;7389434;19;20157;-78
2022/06/23 11:43:14;;;;;;;6.38;1.95;;;29.00;97.70;;;;;;7396194;19;20138;-81
2022/06/23 11:45:50;;;;;;;8.45;1.90;;;29.00;97.90;;;;;;7394869;19;20201;-79
2022/06/23 11:48:39;;;;;;;6.30;1.75;;;29.00;97.80;;;;;;7395328;19;20134;-76
2022/06/23 11:51:32;;;;;;;7.07;3.22;;;29.10;97.00;;;;;;7395353;19;20150;-75
2022/06/23 11:54:17;;;;;;;9.98;1.67;;;29.30;97.20;;;;;;7394271;19;20130;-75
2022/06/23 11:56:43;;;;;;;11.68;3.88;;;29.20;97.40;;;;;;7393569;19;20138;-76
2022/06/23 11:59:20;;;;;;;7.80;3.40;;;29.20;97.20;;;;;;7393244;19;20552;-76
2022/06/23 12:01:46;;;;;;;4.40;1.83;;;29.20;97.50;;;;;;7395772;19;20130;-77
2022/06/23 12:04:36;;;;;;;6.75;2.05;;;29.20;97.50;;;;;;7392979;19;20204;-78
2022/06/23 12:07:10;;;;;;;5.50;1.85;;;29.30;97.60;;;;;;7394716;19;20225;-83
2022/06/23 12:10:01;;;;;;;7.75;1.90;;;29.40;97.40;;;;;;7392474;19;20134;-83
2022/06/23 12:12:30;;;;;;;3.47;1.40;;;29.50;97.80;;;;;;7395670;19;20147;-75
2022/06/23 12:14:56;;;;;;;4.50;1.73;;;29.50;98.30;;;;;;7396632;19;20876;-76
2022/06/23 12:17:34;;;;;;;5.95;1.75;;;29.60;97.70;;;;;;7392536;19;20126;-76
2022/06/23 12:20:35;;;;;;;7.72;2.22;;;29.50;97.80;;;;;;7392217;19;20546;-75
2022/06/23 12:23:12;;;;;;;6.93;2.50;;;29.60;97.50;;;;;;7392935;19;20141;-75
2022/06/23 12:26:00;;;;;;;4.45;1.65;;;29.60;97.20;;;;;;7394720;19;20168;-75
2022/06/23 12:29:03;;;;;;;7.65;2.10;;;29.50;97.70;;;;;;7396428;19;20131;-81
2022/06/23 12:31:47;;;;;;;7.43;2.03;;;29.50;98.10;;;;;;7394356;19;20150;-82
2022/06/23 12:34:31;;;;;;;4.45;1.90;;;29.60;97.10;;;;;;7394018;19;20134;-80
2022/06/23 12:37:23;;;;;;;3.65;1.52;;;29.60;97.00;;;;;;7392419;19;20887;-76
2022/06/23 12:40:21;;;;;;;4.15;1.60;;;29.70;96.70;;;;;;7392044;19;20142;-81
2022/06/23 12:43:01;;;;;;;9.27;2.33;;;29.60;96.40;;;;;;7389107;19;20142;-77
2022/06/23 12:45:47;;;;;;;4.97;1.45;;;29.60;96.70;;;;;;7391375;19;20130;-76
2022/06/23 12:48:43;;;;;;;9.73;3.95;;;29.50;96.60;;;;;;7371421;19;20138;-78
2022/06/23 12:51:46;;;;;;;5.40;1.75;;;29.70;96.20;;;;;;7386289;19;20525;-78
2022/06/23 12:54:24;;;;;;;5.82;2.15;;;29.60;97.10;;;;;;7378041;19;20614;-79
2022/06/23 12:57:01;;;;;;;5.35;2.20;;;29.70;97.10;;;;;;7380056;19;20161;-79
2022/06/23 12:59:57;;;;;;;7.30;1.90;;;29.80;97.30;;;;;;7382813;19;20142;-80
2022/06/23 13:02:52;;;;;;;5.25;1.80;;;29.80;96.80;;;;;;7392058;19;20135;-76
2022/06/23 13:05:26;;;;;;;8.48;1.70;;;29.80;97.30;;;;;;7390262;19;20127;-77
2022/06/23 13:07:55;;;;;;;5.75;2.33;;;29.90;96.90;;;;;;7391779;19;20123;-75
2022/06/23 13:10:31;;;;;;;6.97;1.80;;;29.80;97.20;;;;;;7387118;19;20138;-77
2022/06/23 13:13:22;;;;;;;3.28;1.45;;;29.80;96.80;;;;;;7398347;19;20153;-77
2022/06/23 13:15:59;;;;;;;4.75;1.73;;;29.80;96.50;;;;;;7390139;19;20489;-77
2022/06/23 13:18:33;;;;;;;6.78;2.00;;;29.90;96.10;;;;;;7392818;19;20142;-77
2022/06/23 13:21:26;;;;;;;4.78;1.85;;;29.80;96.40;;;;;;7385534;19;20145;-81
2022/06/23 13:23:57;;;;;;;5.10;2.08;;;29.90;96.20;;;;;;7390671;19;20150;-77
2022/06/23 13:26:49;;;;;;;11.73;2.22;;;29.80;96.10;;;;;;7392836;19;20158;-78
2022/06/23 13:29:19;;;;;;;5.30;1.50;;;29.80;96.30;;;;;;7392985;19;20130;-77
2022/06/23 13:31:52;;;;;;;4.47;1.35;;;29.70;95.30;;;;;;7389240;19;20150;-80
2022/06/23 13:34:35;;;;;;;6.10;2.00;;;29.60;96.00;;;;;;7391561;19;20151;-79
2022/06/23 13:37:04;;;;;;;4.90;2.05;;;29.70;95.40;;;;;;7392279;19;20161;-79
2022/06/23 13:40:04;;;;;;;7.10;1.52;;;29.70;95.60;;;;;;7390429;19;20153;-77
2022/06/23 13:42:39;;;;;;;6.20;1.98;;;29.60;95.70;;;;;;7386999;19;20166;-79
2022/06/23 13:45:39;;;;;;;7.38;2.17;;;29.70;95.80;;;;;;7390235;19;20145;-79
2022/06/23 13:48:20;;;;;;;5.38;1.70;;;29.80;96.10;;;;;;7392713;19;20143;-73
2022/06/23 13:50:58;;;;;;;12.90;2.35;;;29.80;95.20;;;;;;7388941;19;20667;-80
2022/06/23 13:53:47;;;;;;;4.75;1.80;;;29.90;94.90;;;;;;7392300;19;20226;-80
2022/06/23 13:56:40;;;;;;;7.97;1.73;;;29.90;94.60;;;;;;7390986;19;20165;-78
2022/06/23 13:59:20;;;;;;;5.63;1.60;;;29.90;95.00;;;;;;7391870;19;20177;-77